Latest Weather Observations for Tatura

IDV60801

Issued at 3:31 pm EST Friday 4 September 2015 (issued every 30 minutes, with the page automatically refreshed every 10 minutes)

About weather observations | Map of weather stations | Latest weather observations for VIC | Other Formats
Station Details ID: 081049 Name: TATURA INST SUSTAINABLE AG Lat: -36.44 Lon: 145.27 Height: 114.0 m
Data from the previous 72 hours. | See also: Recent months at Tatura
Date/Time
EST
Temp
°C
App
Temp
°C
Dew
Point
Rel
Hum
%
Delta-T
°C
Wind Press
QNH
hPa
Press
MSL
hPa
Rain
since 9 am
mm
Dir
 
Spd
km/h
Gust
km/h
Spd
kts
Gust
kts
04/03:30pm 14.2 9.6 3.9 50 4.7 S 17 24 9 13 - - 0.2
04/03:00pm 14.0 9.5 4.0 51 4.6 S 17 20 9 11 - - 0.2
04/02:30pm 14.1 9.6 4.1 51 4.6 SSW 17 22 9 12 - - 0.2
04/02:00pm 14.0 9.7 3.2 48 4.9 SSW 15 20 8 11 - - 0.2
04/01:30pm 13.7 8.7 3.5 50 4.6 SSE 19 28 10 15 - - 0.2
04/01:00pm 13.3 8.0 3.1 50 4.6 SSW 20 32 11 17 - - 0.0
04/12:30pm 13.2 8.3 4.1 54 4.2 SSW 19 28 10 15 - - 0.0
04/12:00pm 13.7 9.3 4.8 55 4.1 SSW 17 24 9 13 - - 0.0
04/11:30am 12.5 7.2 2.9 52 4.2 S 20 32 11 17 - - 0.0
04/11:00am 12.2 7.1 3.2 54 4.0 S 19 28 10 15 - - 0.0
04/10:30am 11.4 6.3 3.2 57 3.6 S 19 28 10 15 - - 0.0
04/10:00am 11.2 6.1 3.3 58 3.5 S 19 28 10 15 - - 0.0
04/09:30am 10.1 4.6 3.8 65 2.8 S 22 28 12 15 - - 0.0
04/09:00am 9.1 3.8 2.9 65 2.7 S 20 28 11 15 - - 0.0
04/08:30am 8.4 3.8 3.5 71 2.1 S 17 24 9 13 - - 0.0
04/08:00am 6.9 3.4 3.3 78 1.5 S 11 17 6 9 - - 0.0
04/07:30am 5.4 1.8 2.9 84 1.0 SSW 11 17 6 9 - - 0.0
04/07:00am 4.7 1.0 2.4 85 0.9 SSW 11 15 6 8 - - 0.0
04/06:30am 4.4 0.2 1.9 84 1.0 SSW 13 17 7 9 - - 0.0
04/06:00am 4.6 0.8 2.0 83 1.0 SSW 11 17 6 9 - - 0.0
04/05:30am 5.2 1.4 2.0 80 1.3 SSW 11 15 6 8 - - 0.0
04/05:00am 5.5 1.0 2.0 78 1.4 SSW 15 19 8 10 - - 0.0
04/04:30am 6.1 1.6 2.0 75 1.7 SSW 15 22 8 12 - - 0.0
04/04:00am 6.3 1.8 2.4 76 1.6 S 15 22 8 12 - - 0.0
04/03:30am 6.3 1.5 2.4 76 1.6 S 17 22 9 12 - - 0.0
04/03:00am 6.4 1.6 2.7 77 1.5 S 17 22 9 12 - - 0.0
04/02:30am 6.5 1.7 2.8 77 1.5 S 17 22 9 12 - - 0.0
04/02:00am 6.5 1.8 2.9 78 1.5 SSW 17 22 9 12 - - 0.0
04/01:30am 7.0 2.3 3.1 76 1.6 S 17 22 9 12 - - 0.0
04/01:00am 7.3 2.6 3.4 76 1.7 S 17 22 9 12 - - 0.0
04/12:30am 7.2 3.0 3.8 79 1.5 S 15 20 8 11 - - 0.0
04/12:00am 7.5 3.0 4.1 79 1.5 SSW 17 24 9 13 - - 0.0
 
Date/Time
EST
Temp
°C
App
Temp
°C
Dew
Point
Rel
Hum
%
Delta-T
°C
Wind Press
QNH
hPa
Press
MSL
hPa
Rain
since 9 am
mm
Dir
 
Spd
km/h
Gust
km/h
Spd
kts
Gust
kts
03/11:30pm 7.5 3.0 4.3 80 1.4 SSW 17 22 9 12 - - 0.0
03/11:00pm 8.3 3.8 4.1 75 1.8 SSW 17 22 9 12 - - 0.0
03/10:30pm 8.6 3.5 4.0 73 2.0 SSW 20 28 11 15 - - 0.0
03/10:00pm 8.6 3.6 4.4 75 1.9 SSW 20 30 11 16 - - 0.0
03/09:30pm 9.0 4.6 5.0 76 1.8 SSW 17 28 9 15 - - 0.0
03/09:00pm 9.4 4.1 5.2 75 1.9 SSW 22 32 12 17 - - 0.0
03/08:30pm 9.7 4.1 5.5 75 1.9 SSW 24 35 13 19 - - 0.0
03/08:00pm 10.2 5.5 6.0 75 2.0 SSW 20 33 11 18 - - 0.0
03/07:30pm 10.5 5.5 6.3 75 2.0 SSW 22 35 12 19 - - 0.0
03/07:00pm 11.1 6.6 6.8 75 2.0 SSW 20 33 11 18 - - 0.0
03/06:30pm 11.5 5.5 7.2 75 2.1 SSW 28 39 15 21 - - 0.0
03/06:00pm 12.3 6.8 7.4 72 2.4 SSW 26 35 14 19 - - 0.0
03/05:30pm 13.3 8.2 7.7 69 2.8 SSW 24 37 13 20 - - 0.0
03/05:00pm 14.4 9.0 7.9 65 3.2 SSW 26 39 14 21 - - 0.0
03/04:30pm 15.3 10.2 7.8 61 3.8 S 24 41 13 22 - - 0.0
03/04:00pm 15.5 11.4 8.5 63 3.6 SSW 20 35 11 19 - - 0.0
03/03:30pm 15.8 10.8 8.1 60 3.9 S 24 37 13 20 - - 0.0
03/03:12pm 15.7 9.5 7.7 59 4.0 S 30 48 16 26 - - 0.0
03/03:00pm 16.3 9.3 7.0 54 4.6 S 33 46 18 25 - - 0.0
03/02:30pm 16.5 10.2 7.2 54 4.6 S 30 50 16 27 - - 0.0
03/02:00pm 16.7 10.1 7.6 55 4.6 S 32 46 17 25 - - 0.0
03/01:47pm 16.9 10.6 7.5 54 4.7 S 30 48 16 26 - - 0.0
03/01:30pm 16.6 9.2 6.7 52 4.9 S 35 52 19 28 - - 0.0
03/01:21pm 16.6 9.8 7.0 53 4.8 S 32 52 17 28 - - 0.0
03/01:00pm 16.9 10.1 7.0 52 4.9 S 32 48 17 26 - - 0.0
03/12:58pm 17.0 10.6 7.1 52 5.0 S 30 48 16 26 - - 0.0
03/12:30pm 16.9 10.7 7.8 55 4.6 S 30 46 16 25 - - 0.0
03/12:00pm 16.4 9.8 6.0 50 5.1 S 30 44 16 24 - - 0.0
03/11:30am 16.1 9.2 6.5 53 4.7 S 32 46 17 25 - - 0.0
03/11:00am 15.4 9.3 6.4 55 4.4 S 28 43 15 23 - - 0.0
03/10:30am 14.8 9.2 7.1 60 3.8 S 26 41 14 22 - - 0.0
03/10:00am 14.2 10.6 8.4 68 2.9 S 17 30 9 16 - - 0.0
03/09:30am 12.9 9.1 9.0 77 2.0 SSW 19 28 10 15 - - 0.0
03/09:00am 11.7 8.2 8.7 82 1.5 SSW 17 24 9 13 - - 12.4
03/08:30am 11.2 8.0 8.6 84 1.3 S 15 22 8 12 - - 12.4
03/08:00am 10.3 7.4 8.2 87 1.0 SSW 13 19 7 10 - - 12.4
03/07:30am 10.2 7.7 8.1 87 1.0 SSW 11 15 6 8 - - 12.4
03/07:00am 10.1 7.6 8.0 87 1.0 SSW 11 17 6 9 - - 12.4
03/06:30am 9.9 7.9 8.7 92 0.6 SSW 9 17 5 9 - - 12.4
03/06:00am 9.9 7.1 8.7 92 0.6 S 13 19 7 10 - - 12.4
03/05:30am 10.0 7.6 8.6 91 0.7 S 11 15 6 8 - - 12.4
03/05:00am 10.0 8.0 8.8 92 0.6 SSE 9 13 5 7 - - 12.4
03/04:30am 10.0 8.1 8.9 93 0.5 SSE 9 13 5 7 - - 12.4
03/04:00am 10.2 8.8 8.8 91 0.7 SE 6 7 3 4 - - 12.4
03/03:30am 10.4 8.8 8.8 90 0.8 ESE 7 13 4 7 - - 12.4
03/03:00am 10.4 8.5 9.0 91 0.7 ESE 9 15 5 8 - - 12.4
03/02:30am 10.3 8.0 9.1 92 0.6 ESE 11 19 6 10 - - 12.4
03/02:00am 10.6 8.0 9.2 91 0.7 E 13 19 7 10 - - 12.4
03/01:30am 10.7 7.7 9.3 91 0.7 E 15 22 8 12 - - 12.4
03/01:00am 10.6 8.9 9.7 94 0.5 E 9 15 5 8 - - 12.4
03/12:30am 10.7 8.6 9.6 93 0.6 ENE 11 15 6 8 - - 12.4
03/12:00am 10.8 7.9 9.6 92 0.6 E 15 22 8 12 - - 12.0
 
Date/Time
EST
Temp
°C
App
Temp
°C
Dew
Point
Rel
Hum
%
Delta-T
°C
Wind Press
QNH
hPa
Press
MSL
hPa
Rain
since 9 am
mm
Dir
 
Spd
km/h
Gust
km/h
Spd
kts
Gust
kts
02/11:30pm 10.6 8.0 9.5 93 0.6 E 13 19 7 10 - - 12.0
02/11:00pm 10.6 8.1 9.7 94 0.5 ESE 13 19 7 10 - - 12.0
02/10:30pm 10.7 8.2 9.8 94 0.5 E 13 19 7 10 - - 12.0
02/10:00pm 10.8 7.6 10.0 95 0.4 E 17 24 9 13 - - 12.0
02/09:30pm 10.8 7.7 10.2 96 0.3 E 17 24 9 13 - - 12.0
02/09:00pm 10.9 7.8 10.3 96 0.3 E 17 22 9 12 - - 12.0
02/08:30pm 11.1 8.8 10.5 96 0.3 E 13 19 7 10 - - 11.4
02/08:00pm 11.2 9.3 10.6 96 0.3 ENE 11 13 6 7 - - 10.4
02/07:30pm 11.2 9.7 10.4 95 0.4 NNW 9 13 5 7 - - 7.6
02/07:00pm 11.4 9.4 10.3 93 0.6 NE 11 15 6 8 - - 5.6
02/06:30pm 11.7 10.1 10.3 91 0.7 N 9 15 5 8 - - 3.8
02/06:00pm 12.6 10.1 9.6 82 1.5 ENE 13 19 7 10 - - 1.6
02/05:30pm 13.1 10.2 9.5 79 1.8 ENE 15 22 8 12 - - 1.0
02/05:00pm 13.2 10.7 9.6 79 1.8 ENE 13 19 7 10 - - 1.0
02/04:30pm 13.2 10.7 9.6 79 1.8 E 13 20 7 11 - - 1.0
02/04:00pm 13.0 10.9 9.8 81 1.6 ENE 11 17 6 9 - - 0.8
02/03:30pm 13.7 10.4 9.4 75 2.2 ENE 17 28 9 15 - - 0.4
02/03:00pm 15.0 10.6 7.5 61 3.7 NE 20 28 11 15 - - 0.0
02/02:30pm 15.1 9.6 7.4 60 3.8 NE 26 35 14 19 - - 0.0
02/02:00pm 16.3 10.4 7.3 55 4.5 NE 28 43 15 23 - - 0.0
02/01:30pm 16.1 11.0 7.6 57 4.3 ENE 24 33 13 18 - - 0.0
02/01:00pm 15.7 9.9 8.0 60 3.9 ENE 28 43 15 23 - - 0.0
02/12:30pm 16.5 10.3 7.7 56 4.4 ENE 30 43 16 23 - - 0.0
02/12:00pm 15.7 9.6 6.4 54 4.5 NE 28 41 15 22 - - 0.0
02/11:30am 15.0 8.6 6.8 58 4.0 NE 30 39 16 21 - - 0.0
02/11:00am 14.3 8.5 6.2 58 3.9 NE 26 41 14 22 - - 0.0
02/10:30am 13.9 8.9 6.3 60 3.7 NE 22 33 12 18 - - 0.0
02/10:00am 12.8 6.9 5.9 63 3.3 ENE 26 35 14 19 - - 0.0
02/09:30am 12.0 6.6 6.3 68 2.7 ENE 24 32 13 17 - - 0.0
02/09:00am 10.9 5.4 5.9 71 2.3 ENE 24 33 13 18 - - 0.0
02/08:30am 10.2 5.7 6.0 75 2.0 ENE 19 30 10 16 - - 0.0
02/08:00am 8.4 4.5 5.3 81 1.4 ENE 15 22 8 12 - - 0.0
02/07:30am 7.0 2.6 4.5 84 1.1 ENE 17 22 9 12 - - 0.0
02/07:00am 6.4 2.3 4.4 87 0.9 ENE 15 19 8 10 - - 0.0
02/06:30am 6.1 2.0 4.3 88 0.8 E 15 19 8 10 - - 0.0
02/06:00am 6.2 2.5 4.2 87 0.9 ENE 13 17 7 9 - - 0.0
02/05:30am 5.9 2.1 4.1 88 0.8 E 13 20 7 11 - - 0.0
02/05:00am 5.9 1.8 4.1 88 0.8 ENE 15 19 8 10 - - 0.0
02/04:30am 5.4 1.6 3.7 89 0.7 E 13 19 7 10 - - 0.0
02/04:00am 4.8 0.9 3.3 90 0.6 ENE 13 17 7 9 - - 0.0
02/03:30am 4.8 1.3 3.3 90 0.6 ENE 11 15 6 8 - - 0.0
02/03:00am 5.0 1.5 3.3 89 0.7 E 11 15 6 8 - - 0.0
02/02:30am 5.3 1.8 3.5 88 0.8 E 11 15 6 8 - - 0.0
02/02:00am 5.3 1.8 3.5 88 0.8 E 11 15 6 8 - - 0.0
02/01:30am 5.5 1.6 3.5 87 0.8 ENE 13 17 7 9 - - 0.0
02/01:00am 5.9 2.1 3.7 86 0.9 E 13 17 7 9 - - 0.0
02/12:30am 6.3 2.5 4.0 85 1.0 E 13 19 7 10 - - 0.0
02/12:00am 6.2 2.8 3.9 85 1.0 E 11 13 6 7 - - 0.0
 
Date/Time
EST
Temp
°C
App
Temp
°C
Dew
Point
Rel
Hum
%
Delta-T
°C
Wind Press
QNH
hPa
Press
MSL
hPa
Rain
since 9 am
mm
Dir
 
Spd
km/h
Gust
km/h
Spd
kts
Gust
kts
01/11:30pm 6.2 3.1 3.7 84 1.1 ENE 9 13 5 7 - - 0.0
01/11:00pm 6.5 3.1 3.8 83 1.2 ENE 11 13 6 7 - - 0.0
01/10:30pm 6.9 3.5 3.9 81 1.3 ENE 11 13 6 7 - - 0.0
01/10:00pm 7.1 3.6 3.7 79 1.5 E 11 13 6 7 - - 0.0
01/09:30pm 7.4 3.7 4.2 80 1.4 E 13 15 7 8 - - 0.0
01/09:00pm 7.6 4.3 4.4 80 1.4 E 11 15 6 8 - - 0.0
01/08:30pm 7.7 4.7 4.3 79 1.5 ENE 9 9 5 5 - - 0.0
01/08:00pm 8.0 5.1 4.6 79 1.5 E 9 11 5 6 - - 0.0
01/07:30pm 8.4 5.5 4.4 76 1.8 E 9 11 5 6 - - 0.0
01/07:00pm 9.3 6.4 4.9 74 2.0 E 9 13 5 7 - - 0.0
01/06:30pm 9.8 6.6 5.0 72 2.2 E 11 13 6 7 - - 0.0
01/06:00pm 10.9 7.7 5.2 68 2.6 E 11 17 6 9 - - 0.0
01/05:30pm 12.3 9.9 5.2 62 3.3 E 7 9 4 5 - - 0.0
01/05:00pm 13.1 9.9 5.3 59 3.7 E 11 13 6 7 - - 0.0
01/04:30pm 13.9 11.5 4.5 53 4.4 N 6 9 3 5 - - 0.0
01/04:00pm 13.8 11.3 4.7 54 4.2 N 7 13 4 7 - - 0.0

Other Formats:

Comma delimited format used in spreadsheet applications
http://www.bom.gov.au/fwo/IDV60801/IDV60801.95836.axf

JavaScript Object Notation format (JSON) in row-major order
http://www.bom.gov.au/fwo/IDV60801/IDV60801.95836.json